DAOB/TID METAR and TAF weather

Enter ICAO airport designator
Station Type Date Time Source
DAOB METAR 2022/12/05 14:20 UTC NOAA

DAOB 051420Z 20018KT 3000 DRSA SCT030 SCT220 18/M02 Q1016


Station Type Date Time Source
DAOB Decoded METAR 2022/12/05 14:20 UTC NOAA

Tiaret, Algeria (DAOB) 35-15N 001-26E 1127M
Dec 05, 2022 - 09:20 AM EST / 2022.12.05 1420 UTC
Wind: from the SSW (200 degrees) at 21 MPH (18 KT):0
Visibility: 1 mile(s):0
Sky conditions: partly cloudy
Weather: low drifting sand
Temperature: 64 F (18 C)
Dew Point: 28 F (-2 C)
Relative Humidity: 25%
Pressure (altimeter): 30.00 in. Hg (1016 hPa)
ob: DAOB 051420Z 20018KT 3000 DRSA SCT030 SCT220 18/M02 Q1016
cycle: 14

Station Type Date Time Source
DAOB TAF 2022/12/05 12:30 UTC NOAA

TAF DAOB 051100Z 0512/0612 20014KT 9999 FEW030 SCT200 PROB30
TEMPO 0512/0516 20015G30KT 4000 DRSA
BECMG 0608/0610 30010KT

Example: see airport list